Time,TemperatureF,DewpointF,PressureIn,WindDirection,WindDirectionDegrees,WindSpeedMPH,WindSpeedGustMPH,Humidity,HourlyPrecipIn,Conditions,Clouds,dailyrainin,SolarRadiationWatts/m^2,SoftwareType,DateUTC
2013-07-29 00:02:00,71.0,68.0,-100.00,East,88,1.0,4.0,90,0.00,,,0.00,0.000000,,2013-07-29 05:02:00,
2013-07-29 00:22:00,71.0,68.0,-100.00,East,88,1.0,4.0,90,0.00,,,0.00,0.000000,,2013-07-29 05:22:00,
2013-07-29 00:32:00,71.0,68.0,-100.00,East,88,1.0,4.0,90,0.00,,,0.00,0.000000,,2013-07-29 05:32:00,
2013-07-29 00:43:00,71.0,68.0,-100.00,East,88,1.0,4.0,90,0.00,,,0.00,0.000000,,2013-07-29 05:43:00,
2013-07-29 00:53:00,71.0,68.0,-100.00,East,88,1.0,4.0,90,0.00,,,0.00,0.000000,,2013-07-29 05:53:00,
2013-07-29 01:02:00,71.0,68.0,-100.00,ENE,58,2.0,4.0,90,0.00,,,0.00,0.000000,,2013-07-29 06:02:00,
2013-07-29 01:22:00,71.0,68.0,-100.00,ENE,58,2.0,4.0,90,0.00,,,0.00,0.000000,,2013-07-29 06:22:00,
2013-07-29 01:33:00,71.0,68.0,-100.00,ENE,58,2.0,4.0,90,0.00,,,0.00,0.000000,,2013-07-29 06:33:00,
2013-07-29 01:43:00,71.0,68.0,-100.00,ENE,58,2.0,4.0,90,0.00,,,0.00,0.000000,,2013-07-29 06:43:00,
2013-07-29 01:52:00,71.0,68.0,-100.00,ENE,58,2.0,4.0,90,0.00,,,0.00,0.000000,,2013-07-29 06:52:00,
2013-07-29 02:02:00,71.0,68.0,-100.00,East,79,2.0,4.0,91,0.00,,,0.00,0.000000,,2013-07-29 07:02:00,
2013-07-29 02:23:00,71.0,68.0,-100.00,East,79,2.0,4.0,91,0.00,,,0.00,0.000000,,2013-07-29 07:23:00,
2013-07-29 02:33:00,71.0,68.0,-100.00,East,79,2.0,4.0,91,0.00,,,0.00,0.000000,,2013-07-29 07:33:00,
2013-07-29 02:43:00,71.0,68.0,-100.00,East,79,2.0,4.0,91,0.00,,,0.00,0.000000,,2013-07-29 07:43:00,
2013-07-29 02:53:00,71.0,68.0,-100.00,East,79,2.0,4.0,91,0.00,,,0.00,0.000000,,2013-07-29 07:53:00,
2013-07-29 03:02:00,71.0,68.0,-100.00,East,83,3.0,4.0,89,0.00,,,0.00,0.000000,,2013-07-29 08:02:00,
2013-07-29 03:22:00,71.0,68.0,-100.00,East,83,3.0,4.0,89,0.00,,,0.00,0.000000,,2013-07-29 08:22:00,
2013-07-29 03:33:00,71.0,68.0,-100.00,East,83,3.0,4.0,89,0.00,,,0.00,0.000000,,2013-07-29 08:33:00,
2013-07-29 03:42:00,71.0,68.0,-100.00,East,83,3.0,4.0,89,0.00,,,0.00,0.000000,,2013-07-29 08:42:00,
2013-07-29 03:52:00,71.0,68.0,-100.00,East,83,3.0,4.0,89,0.00,,,0.00,0.000000,,2013-07-29 08:52:00,
2013-07-29 04:02:00,72.0,69.0,-100.00,East,81,3.0,6.0,89,0.00,,,0.00,0.000000,,2013-07-29 09:02:00,
2013-07-29 04:22:00,72.0,69.0,-100.00,East,81,3.0,6.0,89,0.00,,,0.00,0.000000,,2013-07-29 09:22:00,
2013-07-29 04:33:00,72.0,69.0,-100.00,East,81,3.0,6.0,89,0.00,,,0.00,0.000000,,2013-07-29 09:33:00,
2013-07-29 04:43:00,72.0,69.0,-100.00,East,81,3.0,6.0,89,0.00,,,0.00,0.000000,,2013-07-29 09:43:00,
2013-07-29 04:53:00,72.0,69.0,-100.00,East,81,3.0,6.0,89,0.00,,,0.00,0.000000,,2013-07-29 09:53:00,
2013-07-29 05:02:00,72.0,68.0,-100.00,ENE,71,3.0,6.0,88,0.00,,,0.00,0.000000,,2013-07-29 10:02:00,
2013-07-29 05:25:00,72.0,68.0,-100.00,ENE,71,3.0,6.0,88,0.00,,,0.00,0.000000,,2013-07-29 10:25:00,
2013-07-29 05:39:00,72.0,68.0,-100.00,ENE,71,3.0,6.0,88,0.00,,,0.00,0.000000,,2013-07-29 10:39:00,
2013-07-29 05:49:00,72.0,68.0,-100.00,ENE,71,3.0,6.0,88,0.00,,,0.00,0.000000,,2013-07-29 10:49:00,
2013-07-29 05:55:00,72.0,68.0,-100.00,ENE,71,3.0,6.0,88,0.00,,,0.00,0.000000,,2013-07-29 10:55:00,
2013-07-29 06:02:00,72.0,68.0,-100.00,ENE,68,3.0,6.0,88,0.00,,,0.00,0.000000,,2013-07-29 11:02:00,
2013-07-29 06:26:00,72.0,68.0,-100.00,ENE,68,3.0,6.0,88,0.00,,,0.00,0.000000,,2013-07-29 11:26:00,
2013-07-29 06:38:00,72.0,68.0,-100.00,ENE,68,3.0,6.0,88,0.00,,,0.00,0.000000,,2013-07-29 11:38:00,
2013-07-29 06:48:00,72.0,68.0,-100.00,ENE,68,3.0,6.0,88,0.00,,,0.00,0.000000,,2013-07-29 11:48:00,
2013-07-29 06:59:00,72.0,68.0,-100.00,ENE,68,3.0,6.0,88,0.00,,,0.00,0.000000,,2013-07-29 11:59:00,
2013-07-29 07:02:00,72.0,69.0,-100.00,ENE,74,3.0,6.0,89,0.00,,,0.00,6.000000,,2013-07-29 12:02:00,
2013-07-29 07:28:00,72.0,69.0,-100.00,ENE,74,3.0,6.0,89,0.00,,,0.00,6.000000,,2013-07-29 12:28:00,
2013-07-29 07:37:00,72.0,69.0,-100.00,ENE,74,3.0,6.0,89,0.00,,,0.00,6.000000,,2013-07-29 12:37:00,
2013-07-29 07:49:00,72.0,69.0,-100.00,ENE,74,3.0,6.0,89,0.00,,,0.00,6.000000,,2013-07-29 12:49:00,
2013-07-29 07:58:00,72.0,69.0,-100.00,ENE,74,3.0,6.0,89,0.00,,,0.00,6.000000,,2013-07-29 12:58:00,
2013-07-29 08:02:00,73.0,69.0,-100.00,East,90,4.0,7.0,87,0.00,,,0.00,22.000000,,2013-07-29 13:02:00,
2013-07-29 08:38:00,73.0,69.0,-100.00,East,90,4.0,7.0,87,0.00,,,0.00,22.000000,,2013-07-29 13:38:00,
2013-07-29 08:45:00,73.0,69.0,-100.00,East,90,4.0,7.0,87,0.00,,,0.00,22.000000,,2013-07-29 13:45:00,
2013-07-29 08:57:00,73.0,69.0,-100.00,East,90,4.0,7.0,87,0.00,,,0.00,22.000000,,2013-07-29 13:57:00,
2013-07-29 09:02:00,75.0,70.0,-100.00,East,88,4.0,7.0,85,0.00,,,0.00,88.000000,,2013-07-29 14:02:00,
2013-07-29 09:29:00,75.0,70.0,-100.00,East,88,4.0,7.0,85,0.00,,,0.00,88.000000,,2013-07-29 14:29:00,
2013-07-29 09:48:00,75.0,70.0,-100.00,East,88,4.0,7.0,85,0.00,,,0.00,88.000000,,2013-07-29 14:48:00,
2013-07-29 09:57:00,75.0,70.0,-100.00,East,88,4.0,7.0,85,0.00,,,0.00,88.000000,,2013-07-29 14:57:00,
2013-07-29 10:02:00,78.0,72.0,-100.00,ESE,111,3.0,7.0,81,0.00,,,0.00,285.000000,,2013-07-29 15:02:00,
2013-07-29 10:25:00,78.0,72.0,-100.00,ESE,111,3.0,7.0,81,0.00,,,0.00,285.000000,,2013-07-29 15:25:00,
2013-07-29 10:39:00,78.0,72.0,-100.00,ESE,111,3.0,7.0,81,0.00,,,0.00,285.000000,,2013-07-29 15:39:00,
2013-07-29 10:46:00,78.0,72.0,-100.00,ESE,111,3.0,7.0,81,0.00,,,0.00,285.000000,,2013-07-29 15:46:00,
2013-07-29 10:55:00,78.0,72.0,-100.00,ESE,111,3.0,7.0,81,0.00,,,0.00,285.000000,,2013-07-29 15:55:00,
2013-07-29 11:02:00,81.0,73.0,-100.00,ESE,118,4.0,7.0,77,0.00,,,0.00,339.000000,,2013-07-29 16:02:00,
2013-07-29 11:25:00,81.0,73.0,-100.00,ESE,118,4.0,7.0,77,0.00,,,0.00,339.000000,,2013-07-29 16:25:00,
2013-07-29 11:41:00,81.0,73.0,-100.00,ESE,118,4.0,7.0,77,0.00,,,0.00,339.000000,,2013-07-29 16:41:00,
2013-07-29 11:47:00,81.0,73.0,-100.00,ESE,118,4.0,7.0,77,0.00,,,0.00,339.000000,,2013-07-29 16:47:00,
2013-07-29 11:57:00,81.0,73.0,-100.00,ESE,118,4.0,7.0,77,0.00,,,0.00,339.000000,,2013-07-29 16:57:00,
2013-07-29 12:02:00,83.0,75.0,-100.00,East,87,3.0,7.0,76,0.00,,,0.00,434.000000,,2013-07-29 17:02:00,
2013-07-29 12:43:00,83.0,75.0,-100.00,East,87,3.0,7.0,76,0.00,,,0.00,434.000000,,2013-07-29 17:43:00,
2013-07-29 12:59:00,83.0,75.0,-100.00,East,87,3.0,7.0,76,0.00,,,0.00,434.000000,,2013-07-29 17:59:00,
2013-07-29 13:02:00,87.0,75.0,-100.00,ESE,119,5.0,9.0,68,0.00,,,0.00,785.000000,,2013-07-29 18:02:00,
2013-07-29 13:28:00,87.0,75.0,-100.00,ESE,119,5.0,9.0,68,0.00,,,0.00,785.000000,,2013-07-29 18:28:00,
2013-07-29 13:39:00,87.0,75.0,-100.00,ESE,119,5.0,9.0,68,0.00,,,0.00,785.000000,,2013-07-29 18:39:00,
2013-07-29 13:47:00,87.0,75.0,-100.00,ESE,119,5.0,9.0,68,0.00,,,0.00,785.000000,,2013-07-29 18:47:00,
2013-07-29 13:59:00,87.0,75.0,-100.00,ESE,119,5.0,9.0,68,0.00,,,0.00,785.000000,,2013-07-29 18:59:00,
2013-07-29 14:02:00,89.0,73.0,-100.00,SE,141,5.0,14.0,59,0.00,,,0.00,881.000000,,2013-07-29 19:02:00,
2013-07-29 14:28:00,89.0,73.0,-100.00,SE,141,5.0,14.0,59,0.00,,,0.00,881.000000,,2013-07-29 19:28:00,
2013-07-29 14:39:00,89.0,73.0,-100.00,SE,141,5.0,14.0,59,0.00,,,0.00,881.000000,,2013-07-29 19:39:00,
2013-07-29 14:48:00,89.0,73.0,-100.00,SE,141,5.0,14.0,59,0.00,,,0.00,881.000000,,2013-07-29 19:48:00,
2013-07-29 14:59:00,89.0,73.0,-100.00,SE,141,5.0,14.0,59,0.00,,,0.00,881.000000,,2013-07-29 19:59:00,
2013-07-29 15:02:00,89.0,74.0,-100.00,SE,135,4.0,11.0,62,0.00,,,0.00,729.000000,,2013-07-29 20:02:00,
2013-07-29 15:38:00,89.0,74.0,-100.00,SE,135,4.0,11.0,62,0.00,,,0.00,729.000000,,2013-07-29 20:38:00,
2013-07-29 15:49:00,89.0,74.0,-100.00,SE,135,4.0,11.0,62,0.00,,,0.00,729.000000,,2013-07-29 20:49:00,
2013-07-29 15:58:00,89.0,74.0,-100.00,SE,135,4.0,11.0,62,0.00,,,0.00,729.000000,,2013-07-29 20:58:00,
2013-07-29 16:02:00,89.0,73.0,-100.00,SE,125,5.0,11.0,60,0.00,,,0.00,682.000000,,2013-07-29 21:02:00,
2013-07-29 16:25:00,89.0,73.0,-100.00,SE,125,5.0,11.0,60,0.00,,,0.00,682.000000,,2013-07-29 21:25:00,
2013-07-29 16:37:00,89.0,73.0,-100.00,SE,125,5.0,11.0,60,0.00,,,0.00,682.000000,,2013-07-29 21:37:00,
2013-07-29 16:49:00,89.0,73.0,-100.00,SE,125,5.0,11.0,60,0.00,,,0.00,682.000000,,2013-07-29 21:49:00,
2013-07-29 17:00:00,89.0,73.0,-100.00,SE,125,5.0,11.0,60,0.00,,,0.00,682.000000,,2013-07-29 22:00:00,
2013-07-29 17:02:00,91.0,74.0,-100.00,ESE,110,4.0,9.0,58,0.00,,,0.00,501.000000,,2013-07-29 22:02:00,
2013-07-29 17:26:00,91.0,74.0,-100.00,ESE,110,4.0,9.0,58,0.00,,,0.00,501.000000,,2013-07-29 22:26:00,
2013-07-29 17:39:00,91.0,74.0,-100.00,ESE,110,4.0,9.0,58,0.00,,,0.00,501.000000,,2013-07-29 22:39:00,
2013-07-29 17:47:00,91.0,74.0,-100.00,ESE,110,4.0,9.0,58,0.00,,,0.00,501.000000,,2013-07-29 22:47:00,
2013-07-29 17:57:00,91.0,74.0,-100.00,ESE,110,4.0,9.0,58,0.00,,,0.00,501.000000,,2013-07-29 22:57:00,
2013-07-29 18:02:00,89.0,74.0,-100.00,SE,135,4.0,10.0,62,0.00,,,0.00,486.000000,,2013-07-29 23:02:00,
2013-07-29 18:27:00,89.0,74.0,-100.00,SE,135,4.0,10.0,62,0.00,,,0.00,486.000000,,2013-07-29 23:27:00,
2013-07-29 18:47:00,89.0,74.0,-100.00,SE,135,4.0,10.0,62,0.00,,,0.00,486.000000,,2013-07-29 23:47:00,
2013-07-29 18:57:00,89.0,74.0,-100.00,SE,135,4.0,10.0,62,0.00,,,0.00,486.000000,,2013-07-29 23:57:00,
2013-07-29 19:02:00,88.0,74.0,-100.00,ESE,110,3.0,9.0,64,0.00,,,0.00,261.000000,,2013-07-30 00:02:00,
2013-07-29 19:28:00,88.0,74.0,-100.00,ESE,110,3.0,9.0,64,0.00,,,0.00,261.000000,,2013-07-30 00:28:00,
2013-07-29 19:35:00,88.0,74.0,-100.00,ESE,110,3.0,9.0,64,0.00,,,0.00,261.000000,,2013-07-30 00:35:00,
2013-07-29 19:51:00,88.0,74.0,-100.00,ESE,110,3.0,9.0,64,0.00,,,0.00,261.000000,,2013-07-30 00:51:00,
2013-07-29 19:56:00,88.0,74.0,-100.00,ESE,110,3.0,9.0,64,0.00,,,0.00,261.000000,,2013-07-30 00:56:00,
2013-07-29 20:02:00,83.0,75.0,-100.00,ENE,69,0.0,7.0,78,0.00,,,0.00,75.000000,,2013-07-30 01:02:00,
2013-07-29 20:24:00,83.0,75.0,-100.00,ENE,69,0.0,7.0,78,0.00,,,0.00,75.000000,,2013-07-30 01:24:00,
2013-07-29 20:38:00,83.0,75.0,-100.00,ENE,69,0.0,7.0,78,0.00,,,0.00,75.000000,,2013-07-30 01:38:00,
2013-07-29 21:00:00,83.0,75.0,-100.00,ENE,69,0.0,7.0,78,0.00,,,0.00,75.000000,,2013-07-30 02:00:00,
2013-07-29 21:02:00,80.0,75.0,-100.00,East,92,2.0,4.0,85,0.00,,,0.00,2.000000,,2013-07-30 02:02:00,
2013-07-29 21:26:00,80.0,75.0,-100.00,East,92,2.0,4.0,85,0.00,,,0.00,2.000000,,2013-07-30 02:26:00,
2013-07-29 21:46:00,80.0,75.0,-100.00,East,92,2.0,4.0,85,0.00,,,0.00,2.000000,,2013-07-30 02:46:00,
2013-07-29 21:56:00,80.0,75.0,-100.00,East,92,2.0,4.0,85,0.00,,,0.00,2.000000,,2013-07-30 02:56:00,
2013-07-29 22:02:00,80.0,73.0,-100.00,ENE,71,3.0,6.0,80,0.00,,,0.00,0.000000,,2013-07-30 03:02:00,
2013-07-29 22:27:00,80.0,73.0,-100.00,ENE,71,3.0,6.0,80,0.00,,,0.00,0.000000,,2013-07-30 03:27:00,
2013-07-29 22:36:00,80.0,73.0,-100.00,ENE,71,3.0,6.0,80,0.00,,,0.00,0.000000,,2013-07-30 03:36:00,
2013-07-29 22:48:00,80.0,73.0,-100.00,ENE,71,3.0,6.0,80,0.00,,,0.00,0.000000,,2013-07-30 03:48:00,
2013-07-29 22:56:00,80.0,73.0,-100.00,ENE,71,3.0,6.0,80,0.00,,,0.00,0.000000,,2013-07-30 03:56:00,
2013-07-29 23:02:00,79.0,73.0,-100.00,East,82,2.0,7.0,83,0.00,,,0.00,0.000000,,2013-07-30 04:02:00,
2013-07-29 23:23:00,79.0,73.0,-100.00,East,82,2.0,7.0,83,0.00,,,0.00,0.000000,,2013-07-30 04:23:00,
2013-07-29 23:33:00,79.0,73.0,-100.00,East,82,2.0,7.0,83,0.00,,,0.00,0.000000,,2013-07-30 04:33:00,
2013-07-29 23:43:00,79.0,73.0,-100.00,East,82,2.0,7.0,83,0.00,,,0.00,0.000000,,2013-07-30 04:43:00,
2013-07-29 23:53:00,79.0,73.0,-100.00,East,82,2.0,7.0,83,0.00,,,0.00,0.000000,,2013-07-30 04:53:00,